Time;durP1;ratioP1;P1;durP2;ratioP2;P2;SDS_P1;SDS_P2;PMS_P1;PMS_P2;Temp;Humidity;BMP_temperature;BMP_pressure;BME280_temperature;BME280_humidity;BME280_pressure;Samples;Min_cycle;Max_cycle;Signal;HPM_P1;HPM_P2
2022/06/16 00:02:12;;;;;;;0.30;0.30;;;19.10;90.40;;;;;;4304828;33;20132;-68
2022/06/16 00:04:38;;;;;;;0.30;0.30;;;19.10;90.40;;;;;;4302449;33;20071;-68
2022/06/16 00:07:04;;;;;;;0.37;0.37;;;19.10;90.20;;;;;;4302729;33;20219;-68
2022/06/16 00:09:29;;;;;;;0.30;0.30;;;19.10;90.20;;;;;;4301188;33;20075;-68
2022/06/16 00:11:54;;;;;;;0.30;0.30;;;19.10;90.80;;;;;;4302576;33;20506;-68
2022/06/16 00:14:23;;;;;;;0.30;0.30;;;19.00;90.50;;;;;;4303083;33;20229;-68
2022/06/16 00:16:48;;;;;;;0.20;0.20;;;19.00;90.50;;;;;;4301631;33;20071;-68
2022/06/16 00:19:15;;;;;;;0.73;0.73;;;19.00;90.60;;;;;;4302928;33;20140;-67
2022/06/16 00:21:41;;;;;;;0.28;0.28;;;19.00;90.60;;;;;;4286304;33;20484;-67
2022/06/16 00:24:07;;;;;;;0.32;0.32;;;19.00;90.50;;;;;;4292655;33;20095;-67
2022/06/16 00:26:32;;;;;;;0.30;0.30;;;19.00;90.80;;;;;;4304447;33;20153;-67
2022/06/16 00:28:58;;;;;;;1.00;0.85;;;18.90;90.80;;;;;;4302027;33;20084;-67
2022/06/16 00:31:23;;;;;;;0.73;0.73;;;18.90;90.90;;;;;;4304818;33;20075;-67
2022/06/16 00:33:49;;;;;;;0.55;0.43;;;19.00;90.80;;;;;;4303775;33;20551;-67
2022/06/16 00:36:15;;;;;;;2.62;0.95;;;18.90;90.70;;;;;;4304955;33;20462;-67
2022/06/16 00:38:41;;;;;;;1.75;0.85;;;18.90;90.70;;;;;;4304386;33;20104;-67
2022/06/16 00:41:07;;;;;;;1.17;0.30;;;18.90;90.70;;;;;;4303502;33;20536;-67
2022/06/16 00:43:33;;;;;;;2.10;0.93;;;18.70;91.00;;;;;;4302001;33;20125;-67
2022/06/16 00:46:04;;;;;;;0.40;0.40;;;18.70;91.10;;;;;;4302948;33;20133;-67
2022/06/16 00:48:38;;;;;;;0.32;0.32;;;18.60;91.30;;;;;;4303584;33;20083;-67
2022/06/16 00:51:10;;;;;;;0.60;0.60;;;18.60;91.40;;;;;;4293140;33;20116;-66
2022/06/16 00:53:38;;;;;;;0.50;0.50;;;18.60;91.40;;;;;;4288431;33;20088;-66
2022/06/16 00:56:05;;;;;;;0.35;0.35;;;18.60;91.10;;;;;;4301418;33;20119;-66
2022/06/16 00:58:33;;;;;;;0.32;0.32;;;18.60;91.30;;;;;;4303283;33;20096;-67
2022/06/16 01:00:59;;;;;;;0.50;0.50;;;18.70;91.40;;;;;;4300636;33;20470;-67
2022/06/16 01:04:56;;;;;;;0.25;0.25;;;18.60;91.50;;;;;;4303567;33;20232;-67
2022/06/16 01:06:28;;;;;;;0.50;0.50;;;18.50;91.90;;;;;;4300367;33;20093;-66
2022/06/16 01:09:05;;;;;;;0.30;0.30;;;18.30;92.10;;;;;;4302717;33;20090;-66
2022/06/16 01:14:03;;;;;;;0.37;0.37;;;18.30;92.20;;;;;;4304017;33;20136;-67
2022/06/16 01:15:22;;;;;;;0.28;0.28;;;18.30;92.10;;;;;;4287972;33;20431;-67
2022/06/16 01:17:59;;;;;;;6.93;0.75;;;18.30;92.20;;;;;;4300746;33;21379;-67
2022/06/16 01:20:48;;;;;;;0.37;0.37;;;18.20;92.50;;;;;;4302052;33;20076;-66
2022/06/16 01:23:51;;;;;;;0.30;0.30;;;18.00;92.90;;;;;;4283897;33;20539;-66
2022/06/16 01:26:37;;;;;;;0.37;0.37;;;17.80;93.20;;;;;;4303113;33;20472;-66
2022/06/16 01:29:10;;;;;;;0.50;0.50;;;18.00;93.20;;;;;;4303210;33;20101;-66
2022/06/16 01:32:01;;;;;;;0.30;0.30;;;18.00;93.20;;;;;;4297684;33;97684;-66
2022/06/16 01:34:46;;;;;;;;;;;17.90;93.60;;;;;;4305178;33;20511;-66
2022/06/16 01:37:21;;;;;;;0.88;0.77;;;17.80;93.70;;;;;;4302792;33;19948;-66
2022/06/16 01:40:09;;;;;;;0.50;0.50;;;17.80;93.70;;;;;;4303790;33;20441;-66
2022/06/16 01:42:42;;;;;;;1.12;0.93;;;17.80;93.90;;;;;;4303748;33;20072;-66
2022/06/16 01:45:13;;;;;;;0.30;0.30;;;17.90;93.70;;;;;;4304501;33;20149;-66
2022/06/16 01:47:42;;;;;;;1.67;0.30;;;17.90;93.70;;;;;;4300146;33;20096;-66
2022/06/16 01:50:15;;;;;;;0.43;0.43;;;17.80;93.80;;;;;;4303875;33;20072;-66
2022/06/16 01:52:46;;;;;;;0.45;0.45;;;17.90;93.80;;;;;;4278938;33;20128;-67
2022/06/16 01:55:16;;;;;;;0.30;0.30;;;18.00;93.80;;;;;;4292513;33;20076;-67
2022/06/16 01:57:49;;;;;;;0.60;0.50;;;18.00;94.00;;;;;;4302583;33;20464;-67
2022/06/16 02:00:18;;;;;;;1.77;0.88;;;18.00;94.00;;;;;;4302805;33;20218;-67
2022/06/16 02:02:47;;;;;;;0.37;0.37;;;18.00;94.00;;;;;;4290841;33;20471;-67
2022/06/16 02:05:21;;;;;;;1.60;0.60;;;17.90;94.20;;;;;;4306367;33;20056;-67
2022/06/16 02:08:05;;;;;;;0.55;0.55;;;17.90;94.30;;;;;;4305221;33;20071;-68
2022/06/16 02:10:38;;;;;;;0.50;0.40;;;17.90;94.60;;;;;;4304778;33;20516;-67
2022/06/16 02:13:05;;;;;;;6.62;0.30;;;17.90;94.70;;;;;;4305066;33;20068;-67
2022/06/16 02:16:01;;;;;;;0.45;0.45;;;17.80;94.90;;;;;;4303872;33;20095;-67
2022/06/16 02:18:29;;;;;;;0.40;0.40;;;17.70;95.40;;;;;;4298620;33;20116;-69
2022/06/16 02:21:02;;;;;;;0.40;0.40;;;17.50;95.90;;;;;;4295764;33;20141;-67
2022/06/16 02:23:29;;;;;;;0.20;0.20;;;17.50;96.10;;;;;;4288400;33;20080;-67
2022/06/16 02:25:57;;;;;;;0.30;0.30;;;17.50;96.20;;;;;;4291849;33;20092;-67
2022/06/16 02:28:24;;;;;;;0.52;0.52;;;17.50;96.40;;;;;;4303891;33;20087;-67
2022/06/16 02:31:29;;;;;;;0.55;0.50;;;17.50;96.60;;;;;;4301405;33;20072;-67
2022/06/16 02:34:13;;;;;;;0.30;0.30;;;17.60;96.60;;;;;;4300716;33;20088;-67
2022/06/16 02:37:15;;;;;;;0.32;0.32;;;17.60;96.90;;;;;;4306691;33;20075;-67
2022/06/16 02:40:03;;;;;;;4.57;0.60;;;17.60;96.90;;;;;;4305028;33;20096;-67
2022/06/16 02:42:53;;;;;;;0.30;0.30;;;17.60;97.00;;;;;;4304006;33;20092;-67
2022/06/16 02:45:33;;;;;;;0.30;0.30;;;17.60;97.20;;;;;;4305212;33;20083;-67
2022/06/16 02:48:28;;;;;;;2.83;1.07;;;17.50;97.50;;;;;;4305240;33;20128;-67
2022/06/16 02:50:59;;;;;;;0.40;0.40;;;17.50;97.70;;;;;;4295928;33;20143;-67
2022/06/16 02:53:39;;;;;;;0.85;0.77;;;17.40;98.00;;;;;;4288698;33;20116;-67
2022/06/16 02:56:12;;;;;;;0.93;0.70;;;17.20;98.60;;;;;;4306512;33;20088;-67
2022/06/16 02:58:41;;;;;;;0.50;0.50;;;17.10;98.70;;;;;;4304755;33;20081;-67
2022/06/16 03:01:07;;;;;;;0.30;0.30;;;17.30;98.80;;;;;;4301977;33;20123;-67
2022/06/16 03:03:34;;;;;;;0.40;0.40;;;17.30;99.00;;;;;;4305292;33;20113;-67
2022/06/16 03:06:00;;;;;;;0.30;0.30;;;17.40;98.70;;;;;;4304305;33;20071;-67
2022/06/16 03:08:28;;;;;;;0.43;0.40;;;17.40;98.80;;;;;;4304066;33;20080;-67
2022/06/16 03:10:54;;;;;;;0.30;0.30;;;17.30;99.20;;;;;;4306305;33;20063;-67
2022/06/16 03:13:23;;;;;;;0.52;0.45;;;17.30;99.30;;;;;;4305241;33;20117;-67
2022/06/16 03:15:50;;;;;;;0.93;0.70;;;17.20;99.50;;;;;;4303581;33;20594;-67
2022/06/16 03:18:17;;;;;;;0.55;0.55;;;17.20;99.80;;;;;;4304773;33;20076;-67
2022/06/16 03:20:43;;;;;;;0.50;0.50;;;17.30;99.60;;;;;;4297331;33;20494;-67
2022/06/16 03:23:09;;;;;;;0.20;0.20;;;17.30;99.70;;;;;;4282913;33;20068;-67
2022/06/16 03:25:35;;;;;;;0.43;0.43;;;17.30;99.80;;;;;;4304175;33;20151;-67
2022/06/16 03:28:01;;;;;;;8.77;0.45;;;17.20;99.90;;;;;;4304073;33;20083;-67
2022/06/16 03:30:27;;;;;;;0.37;0.37;;;17.20;99.90;;;;;;4299105;33;20111;-67
2022/06/16 03:32:52;;;;;;;0.30;0.30;;;17.10;99.90;;;;;;4302047;33;20071;-67
2022/06/16 03:35:18;;;;;;;0.40;0.40;;;17.10;99.90;;;;;;4304549;33;20711;-68
2022/06/16 03:37:43;;;;;;;0.50;0.50;;;17.10;99.90;;;;;;4303862;33;20068;-68
2022/06/16 03:40:13;;;;;;;0.60;0.47;;;17.00;99.90;;;;;;4303230;33;20091;-68
2022/06/16 03:42:39;;;;;;;0.28;0.22;;;17.00;99.90;;;;;;4302196;33;20072;-68
2022/06/16 03:45:05;;;;;;;9.13;0.57;;;17.00;99.90;;;;;;4304730;33;20095;-67
2022/06/16 03:47:31;;;;;;;1.40;1.00;;;16.90;99.90;;;;;;4300334;33;20092;-67
2022/06/16 03:49:57;;;;;;;1.58;0.60;;;16.90;99.90;;;;;;4302576;33;20075;-67
2022/06/16 03:52:22;;;;;;;0.40;0.40;;;16.90;99.90;;;;;;4279777;33;20435;-68
2022/06/16 03:54:48;;;;;;;0.40;0.40;;;16.90;99.90;;;;;;4303216;33;20144;-68
2022/06/16 03:57:13;;;;;;;0.32;0.32;;;17.00;99.90;;;;;;4306034;33;20539;-68
2022/06/16 03:59:39;;;;;;;0.43;0.43;;;17.10;99.90;;;;;;4305322;33;20601;-68
2022/06/16 04:02:04;;;;;;;0.30;0.30;;;17.10;99.90;;;;;;4304825;33;20080;-68
2022/06/16 04:04:30;;;;;;;0.32;0.32;;;17.10;99.90;;;;;;4304215;33;20091;-68
2022/06/16 04:06:55;;;;;;;0.30;0.30;;;17.10;99.90;;;;;;4303843;33;20839;-68
2022/06/16 04:09:21;;;;;;;0.60;0.50;;;17.20;99.90;;;;;;4304361;33;20114;-68
2022/06/16 04:11:46;;;;;;;0.55;0.55;;;17.20;99.90;;;;;;4303661;33;20446;-68
2022/06/16 04:14:14;;;;;;;0.55;0.50;;;17.30;99.90;;;;;;4304936;33;20393;-68
2022/06/16 04:16:42;;;;;;;0.20;0.20;;;17.30;99.90;;;;;;4303391;33;20537;-68
2022/06/16 04:19:10;;;;;;;1.55;0.50;;;17.20;99.90;;;;;;4301336;33;20092;-68
2022/06/16 04:21:37;;;;;;;0.50;0.50;;;17.20;99.90;;;;;;4276400;33;20663;-67
2022/06/16 04:24:03;;;;;;;1.48;0.95;;;17.20;99.90;;;;;;4237259;33;20071;-67
2022/06/16 04:26:29;;;;;;;0.40;0.40;;;17.10;99.90;;;;;;4242507;33;20519;-67
2022/06/16 04:28:54;;;;;;;0.50;0.40;;;17.10;99.90;;;;;;4258623;33;20099;-68
2022/06/16 04:31:20;;;;;;;0.40;0.40;;;17.10;99.90;;;;;;4289557;33;20435;-67
2022/06/16 04:33:46;;;;;;;8.48;0.68;;;17.10;99.90;;;;;;4297465;33;20096;-67
2022/06/16 04:36:13;;;;;;;0.60;0.60;;;17.10;99.90;;;;;;4300946;33;20064;-68
2022/06/16 04:38:39;;;;;;;0.30;0.30;;;17.20;99.90;;;;;;4303332;33;20142;-67
2022/06/16 04:41:04;;;;;;;0.30;0.30;;;17.30;99.90;;;;;;4303699;33;20327;-67
2022/06/16 04:43:31;;;;;;;1.00;0.65;;;17.30;99.90;;;;;;4300249;33;20092;-67
2022/06/16 04:45:58;;;;;;;0.30;0.30;;;17.20;99.90;;;;;;4301639;33;20096;-67
2022/06/16 04:48:24;;;;;;;0.20;0.20;;;17.20;99.90;;;;;;4300952;33;20486;-68
2022/06/16 04:50:50;;;;;;;0.75;0.50;;;17.20;99.90;;;;;;4296628;33;20092;-68
2022/06/16 04:53:15;;;;;;;0.40;0.40;;;17.30;99.90;;;;;;4251012;33;20117;-68
2022/06/16 04:55:41;;;;;;;0.65;0.65;;;17.10;99.90;;;;;;4289204;33;20136;-68
2022/06/16 04:58:06;;;;;;;0.32;0.32;;;17.10;99.90;;;;;;4303451;33;20075;-68
2022/06/16 05:00:34;;;;;;;0.30;0.30;;;17.10;99.90;;;;;;4297344;33;20080;-67
2022/06/16 05:03:01;;;;;;;0.40;0.40;;;17.20;99.90;;;;;;4278949;33;20105;-67
2022/06/16 05:05:27;;;;;;;0.50;0.32;;;17.10;99.90;;;;;;4255999;33;20271;-67
2022/06/16 05:07:53;;;;;;;0.37;0.37;;;17.10;99.90;;;;;;4258256;33;20149;-67
2022/06/16 05:10:18;;;;;;;0.20;0.20;;;17.00;99.90;;;;;;4250391;33;20281;-67
2022/06/16 05:12:44;;;;;;;0.37;0.37;;;17.10;99.90;;;;;;4282165;33;20064;-67
2022/06/16 05:15:10;;;;;;;1.45;0.88;;;17.20;99.90;;;;;;4282077;33;20124;-68
2022/06/16 05:17:35;;;;;;;0.50;0.50;;;17.30;99.90;;;;;;4269887;33;20799;-67
2022/06/16 05:20:01;;;;;;;0.62;0.62;;;17.30;99.90;;;;;;4194766;33;20910;-67
2022/06/16 05:22:27;;;;;;;1.62;0.90;;;17.40;99.90;;;;;;4188220;33;20419;-67
2022/06/16 05:24:52;;;;;;;0.30;0.30;;;17.50;99.90;;;;;;4190455;33;20152;-67
2022/06/16 05:27:19;;;;;;;0.47;0.47;;;17.40;99.90;;;;;;4262202;33;20088;-67
2022/06/16 05:29:45;;;;;;;0.45;0.45;;;17.40;99.90;;;;;;4238810;33;20096;-68
2022/06/16 05:32:11;;;;;;;0.37;0.37;;;17.40;99.90;;;;;;4210652;33;20304;-67
2022/06/16 05:34:38;;;;;;;6.82;1.67;;;17.40;99.90;;;;;;4207007;33;20601;-67
2022/06/16 05:37:07;;;;;;;0.80;0.50;;;17.40;99.90;;;;;;4213244;33;20121;-67
2022/06/16 05:39:34;;;;;;;0.30;0.30;;;17.40;99.90;;;;;;4237443;33;20410;-67
2022/06/16 05:42:01;;;;;;;0.30;0.30;;;17.50;99.90;;;;;;4249338;33;20096;-67
2022/06/16 05:44:27;;;;;;;0.37;0.37;;;17.60;99.90;;;;;;4271730;33;20088;-67
2022/06/16 05:46:53;;;;;;;0.73;0.50;;;17.70;99.90;;;;;;4278310;33;20494;-67
2022/06/16 05:49:21;;;;;;;0.55;0.55;;;17.80;99.90;;;;;;4267096;33;20291;-67
2022/06/16 05:51:47;;;;;;;0.75;0.62;;;17.90;99.90;;;;;;4266714;33;20199;-67
2022/06/16 05:54:12;;;;;;;9.85;1.60;;;18.00;99.90;;;;;;4273338;33;20615;-67
2022/06/16 05:56:38;;;;;;;1.75;0.43;;;18.10;99.90;;;;;;4281111;33;20824;-68
2022/06/16 05:59:03;;;;;;;0.40;0.40;;;18.10;99.90;;;;;;4277185;33;20636;-67
2022/06/16 06:01:29;;;;;;;0.62;0.47;;;18.20;99.90;;;;;;4260626;33;20287;-67
2022/06/16 06:03:55;;;;;;;0.65;0.47;;;18.40;99.90;;;;;;4244657;33;20230;-66
2022/06/16 06:06:20;;;;;;;0.85;0.60;;;18.40;99.90;;;;;;4263384;33;20101;-67
2022/06/16 06:16:35;;;;;;;0.50;0.50;;;18.60;99.90;;;;;;4269205;33;20092;-66
2022/06/16 06:17:11;;;;;;;3.97;1.25;;;18.70;99.90;;;;;;4279614;33;20105;-68
2022/06/16 06:19:37;;;;;;;0.68;0.60;;;18.80;99.90;;;;;;4266674;33;20183;-67
2022/06/16 06:22:07;;;;;;;0.30;0.30;;;18.90;99.90;;;;;;4278504;33;20064;-67
2022/06/16 06:24:36;;;;;;;3.70;1.35;;;18.90;99.90;;;;;;4279147;33;20080;-67
2022/06/16 06:27:13;;;;;;;0.30;0.30;;;19.00;99.90;;;;;;4288447;33;20091;-67
2022/06/16 06:29:38;;;;;;;0.65;0.47;;;19.10;99.90;;;;;;4273641;33;20092;-67
2022/06/16 06:32:04;;;;;;;0.30;0.30;;;19.20;99.90;;;;;;4267848;33;20349;-67
2022/06/16 06:34:30;;;;;;;0.20;0.20;;;19.20;99.90;;;;;;4261062;33;20407;-67
2022/06/16 06:36:56;;;;;;;0.37;0.30;;;19.30;99.90;;;;;;4280690;33;20202;-67
2022/06/16 06:39:22;;;;;;;0.50;0.50;;;19.40;99.90;;;;;;4275828;33;20663;-67
2022/06/16 06:41:48;;;;;;;1.37;0.55;;;19.50;99.90;;;;;;4276547;33;20430;-67
2022/06/16 06:44:14;;;;;;;1.15;0.90;;;19.50;99.90;;;;;;4280663;33;20104;-67
2022/06/16 06:46:40;;;;;;;0.40;0.40;;;19.40;99.90;;;;;;4279916;33;20103;-67
2022/06/16 06:49:06;;;;;;;0.30;0.30;;;19.30;99.90;;;;;;4274449;33;20784;-67
2022/06/16 06:51:32;;;;;;;0.30;0.30;;;19.30;99.90;;;;;;4273378;33;20100;-66
2022/06/16 06:53:58;;;;;;;0.30;0.30;;;19.30;99.90;;;;;;4276514;33;20076;-67
2022/06/16 06:56:24;;;;;;;0.50;0.50;;;19.40;99.90;;;;;;4287511;33;20737;-67
2022/06/16 06:58:52;;;;;;;0.98;0.40;;;19.50;99.90;;;;;;4275427;33;20863;-66
2022/06/16 07:01:17;;;;;;;0.50;0.50;;;19.70;99.90;;;;;;4264823;33;20927;-67
2022/06/16 07:03:43;;;;;;;0.30;0.30;;;20.00;99.80;;;;;;4262601;33;20178;-67
2022/06/16 07:06:09;;;;;;;0.37;0.37;;;20.20;99.40;;;;;;4261768;33;20884;-66
2022/06/16 07:08:35;;;;;;;0.43;0.43;;;20.40;98.90;;;;;;4271121;33;20256;-68
2022/06/16 07:11:01;;;;;;;0.32;0.32;;;20.50;98.60;;;;;;4274356;33;20068;-67
2022/06/16 07:13:26;;;;;;;0.62;0.62;;;20.70;98.10;;;;;;4271550;33;20571;-67
2022/06/16 07:15:52;;;;;;;0.30;0.30;;;20.70;98.50;;;;;;4268848;33;20095;-68
2022/06/16 07:18:18;;;;;;;0.30;0.30;;;20.70;98.40;;;;;;4271412;33;20401;-67
2022/06/16 07:20:43;;;;;;;0.77;0.77;;;20.60;98.20;;;;;;4264055;33;20660;-67
2022/06/16 07:23:10;;;;;;;0.30;0.30;;;20.60;98.30;;;;;;4277975;33;20076;-67
2022/06/16 07:25:36;;;;;;;0.30;0.30;;;20.60;98.30;;;;;;4274675;33;20532;-67
2022/06/16 07:28:01;;;;;;;0.22;0.22;;;20.50;98.40;;;;;;4266764;33;20243;-67
2022/06/16 07:30:27;;;;;;;0.47;0.47;;;20.50;98.70;;;;;;4256113;33;20096;-67
2022/06/16 07:32:53;;;;;;;0.62;0.40;;;20.50;98.30;;;;;;4255911;33;20271;-67
2022/06/16 07:35:21;;;;;;;8.82;1.27;;;20.60;98.70;;;;;;4257532;33;20444;-67
2022/06/16 07:37:47;;;;;;;0.40;0.40;;;20.70;98.20;;;;;;4263481;33;20239;-67
2022/06/16 07:40:14;;;;;;;0.30;0.30;;;20.70;98.40;;;;;;4259393;33;20363;-67
2022/06/16 07:42:40;;;;;;;0.50;0.50;;;20.70;98.30;;;;;;4272719;33;20056;-67
2022/06/16 07:45:07;;;;;;;1.10;0.50;;;20.60;98.10;;;;;;4265841;33;20199;-67
2022/06/16 07:47:32;;;;;;;0.22;0.22;;;20.70;97.30;;;;;;4262691;33;20370;-67
2022/06/16 07:49:59;;;;;;;0.40;0.40;;;20.90;97.70;;;;;;4260568;33;20124;-67
2022/06/16 07:52:24;;;;;;;1.10;0.62;;;21.00;97.60;;;;;;4267128;33;20115;-68
2022/06/16 07:54:50;;;;;;;0.50;0.50;;;21.10;97.50;;;;;;4269551;33;20107;-68
2022/06/16 07:57:17;;;;;;;0.43;0.43;;;21.20;97.00;;;;;;4269042;33;20159;-68
2022/06/16 07:59:47;;;;;;;0.30;0.30;;;21.30;96.90;;;;;;4265750;33;20096;-68
2022/06/16 08:02:12;;;;;;;1.45;0.35;;;21.30;97.00;;;;;;4257306;33;20108;-69
2022/06/16 08:04:38;;;;;;;0.30;0.30;;;21.40;96.60;;;;;;4259491;33;20088;-68
2022/06/16 08:07:03;;;;;;;0.43;0.37;;;21.40;96.30;;;;;;4266943;33;20267;-68
2022/06/16 08:09:38;;;;;;;0.45;0.45;;;21.50;95.50;;;;;;4267138;33;20912;-68
2022/06/16 08:12:08;;;;;;;0.35;0.35;;;21.70;95.90;;;;;;4276375;33;20689;-67
2022/06/16 08:14:38;;;;;;;5.07;0.55;;;22.00;95.80;;;;;;4268522;33;20529;-66
2022/06/16 08:17:10;;;;;;;;;;;22.20;95.20;;;;;;4273837;33;20628;-69
2022/06/16 08:19:35;;;;;;;0.40;0.40;;;22.30;94.90;;;;;;4264786;33;19988;-67
2022/06/16 08:22:01;;;;;;;0.32;0.32;;;22.30;94.80;;;;;;4263339;33;20171;-68
2022/06/16 08:24:26;;;;;;;0.20;0.20;;;22.30;94.90;;;;;;4271365;33;20842;-67
2022/06/16 08:26:52;;;;;;;0.30;0.30;;;22.30;94.70;;;;;;4278179;33;21061;-68
2022/06/16 08:29:19;;;;;;;1.42;1.02;;;22.40;94.50;;;;;;4264146;33;20279;-68
2022/06/16 08:31:45;;;;;;;0.45;0.45;;;22.60;94.70;;;;;;4262505;33;20120;-68
2022/06/16 08:34:11;;;;;;;0.28;0.28;;;22.90;93.90;;;;;;4254814;33;20347;-68
2022/06/16 08:36:37;;;;;;;0.30;0.30;;;23.00;93.20;;;;;;4254615;33;20104;-68
2022/06/16 08:39:05;;;;;;;5.03;1.20;;;23.20;93.20;;;;;;4264686;33;20600;-68
2022/06/16 08:41:54;;;;;;;0.20;0.20;;;23.30;93.20;;;;;;4267707;33;20280;-68
2022/06/16 08:44:31;;;;;;;0.40;0.40;;;23.40;92.80;;;;;;4263146;33;20103;-67
2022/06/16 08:47:15;;;;;;;0.35;0.35;;;23.30;92.50;;;;;;4268286;33;20095;-68
2022/06/16 08:50:06;;;;;;;0.50;0.50;;;23.40;92.40;;;;;;4251517;33;20308;-68
2022/06/16 08:52:41;;;;;;;0.30;0.30;;;23.30;92.50;;;;;;4257554;33;20145;-68
2022/06/16 08:55:21;;;;;;;2.50;0.62;;;23.50;92.50;;;;;;4259115;33;20424;-67
2022/06/16 08:58:03;;;;;;;0.60;0.40;;;23.50;91.20;;;;;;4269018;33;20087;-67
2022/06/16 09:00:38;;;;;;;0.20;0.20;;;23.40;91.80;;;;;;4256488;33;20365;-67
2022/06/16 09:03:26;;;;;;;0.40;0.32;;;23.40;92.00;;;;;;4259175;33;21085;-67
2022/06/16 09:06:15;;;;;;;0.30;0.30;;;23.60;91.60;;;;;;4258896;33;20612;-68
2022/06/16 09:08:55;;;;;;;0.40;0.40;;;23.80;91.40;;;;;;4262366;33;20107;-68
2022/06/16 09:11:48;;;;;;;0.50;0.50;;;23.80;92.30;;;;;;4269912;33;20643;-67
2022/06/16 09:15:10;;;;;;;0.47;0.47;;;24.00;91.80;;;;;;4266614;33;20489;-68
2022/06/16 09:17:30;;;;;;;0.55;0.37;;;24.00;91.20;;;;;;4248297;33;20085;-67
2022/06/16 09:20:01;;;;;;;0.40;0.40;;;23.90;91.30;;;;;;4249512;33;20626;-67
2022/06/16 09:22:44;;;;;;;1.08;0.70;;;24.10;91.20;;;;;;4244688;33;20123;-67
2022/06/16 09:25:24;;;;;;;1.95;0.75;;;24.30;90.10;;;;;;4254189;33;20417;-67
2022/06/16 09:27:59;;;;;;;1.30;0.77;;;24.40;89.60;;;;;;4262227;33;20107;-67
2022/06/16 09:30:32;;;;;;;2.65;0.50;;;24.50;88.60;;;;;;4252531;33;20380;-67
2022/06/16 09:33:03;;;;;;;0.20;0.20;;;24.30;89.10;;;;;;4245684;33;20108;-67
2022/06/16 09:35:41;;;;;;;0.30;0.30;;;24.10;90.20;;;;;;4251641;33;20509;-67
2022/06/16 09:38:16;;;;;;;0.30;0.30;;;24.00;90.40;;;;;;4250171;33;20164;-67
2022/06/16 09:40:46;;;;;;;0.43;0.43;;;24.30;90.90;;;;;;4256016;33;20188;-67
2022/06/16 09:43:37;;;;;;;0.15;0.15;;;24.40;87.80;;;;;;4253429;33;21708;-67
2022/06/16 09:46:32;;;;;;;0.20;0.20;;;24.50;88.40;;;;;;4251181;33;20390;-66
2022/06/16 09:49:05;;;;;;;0.28;0.28;;;24.50;88.80;;;;;;4252134;33;20088;-67
2022/06/16 09:51:40;;;;;;;0.10;0.10;;;24.60;88.90;;;;;;4245388;33;20453;-66
2022/06/16 09:54:32;;;;;;;1.50;0.60;;;24.70;88.50;;;;;;4255391;33;20096;-66
2022/06/16 09:57:13;;;;;;;0.45;0.45;;;24.70;87.80;;;;;;4263665;33;20167;-67
2022/06/16 09:59:53;;;;;;;0.30;0.30;;;24.60;89.10;;;;;;4263413;33;20156;-67
2022/06/16 10:02:23;;;;;;;0.20;0.20;;;24.80;87.90;;;;;;4261315;33;20092;-67
2022/06/16 10:04:53;;;;;;;0.60;0.60;;;25.10;88.10;;;;;;4259447;33;20675;-67
2022/06/16 10:07:30;;;;;;;0.40;0.40;;;25.00;86.60;;;;;;4261915;33;20589;-67
2022/06/16 10:10:19;;;;;;;0.35;0.35;;;25.00;87.20;;;;;;4269541;33;20483;-67
2022/06/16 10:12:55;;;;;;;0.43;0.43;;;25.10;87.50;;;;;;4266913;33;20521;-67
2022/06/16 10:15:38;;;;;;;4.05;0.37;;;25.30;85.90;;;;;;4267566;33;20108;-67
2022/06/16 10:18:05;;;;;;;0.43;0.43;;;25.60;85.80;;;;;;4252161;33;20863;-67
2022/06/16 10:20:31;;;;;;;0.20;0.17;;;25.60;84.50;;;;;;4256216;33;20571;-67
2022/06/16 10:23:04;;;;;;;0.55;0.55;;;25.60;84.20;;;;;;4270712;33;20120;-67
2022/06/16 10:25:35;;;;;;;0.90;0.37;;;25.50;83.50;;;;;;4257836;33;20813;-68
2022/06/16 10:28:19;;;;;;;0.47;0.35;;;25.60;83.70;;;;;;4276054;33;20484;-68
2022/06/16 10:30:45;;;;;;;0.10;0.10;;;25.70;82.70;;;;;;4268483;33;20204;-68
2022/06/16 10:33:21;;;;;;;0.20;0.20;;;25.60;83.30;;;;;;4259204;33;20087;-68
2022/06/16 10:35:58;;;;;;;0.20;0.20;;;25.80;83.50;;;;;;4236137;33;21012;-67
2022/06/16 10:38:35;;;;;;;0.10;0.10;;;25.80;82.80;;;;;;4268684;33;21446;-67
2022/06/16 10:41:22;;;;;;;0.10;0.10;;;25.80;82.60;;;;;;4267156;33;20498;-67
2022/06/16 10:43:52;;;;;;;0.17;0.17;;;25.90;80.30;;;;;;4257960;33;20772;-68
2022/06/16 10:46:22;;;;;;;0.22;0.22;;;25.60;81.30;;;;;;4272403;33;20175;-68
2022/06/16 10:48:53;;;;;;;0.30;0.30;;;25.60;81.00;;;;;;4270494;33;20232;-68
2022/06/16 10:51:22;;;;;;;0.28;0.28;;;25.60;82.00;;;;;;4255086;33;20886;-68
2022/06/16 10:54:03;;;;;;;0.73;0.37;;;25.50;81.20;;;;;;4253441;33;20088;-68
2022/06/16 10:56:29;;;;;;;0.30;0.30;;;25.60;81.30;;;;;;4256288;33;20116;-68
2022/06/16 10:59:16;;;;;;;2.28;0.75;;;25.60;81.30;;;;;;4265167;33;20237;-68
2022/06/16 11:01:50;;;;;;;0.30;0.30;;;25.90;81.70;;;;;;4261015;33;22124;-67
2022/06/16 11:04:20;;;;;;;1.20;0.85;;;26.00;82.00;;;;;;4268721;33;20079;-68
2022/06/16 11:06:48;;;;;;;0.20;0.20;;;26.10;81.80;;;;;;4261924;33;21351;-67
2022/06/16 11:09:19;;;;;;;0.35;0.35;;;25.90;80.40;;;;;;4273008;33;20099;-67
2022/06/16 11:11:52;;;;;;;0.35;0.35;;;25.60;80.80;;;;;;4278506;33;20965;-67
2022/06/16 11:14:30;;;;;;;0.30;0.30;;;25.70;82.60;;;;;;4279509;33;20143;-67
2022/06/16 11:16:56;;;;;;;0.10;0.10;;;26.00;80.80;;;;;;4273088;33;20921;-67
2022/06/16 11:19:35;;;;;;;5.37;0.57;;;26.10;81.40;;;;;;4260153;33;20518;-67
2022/06/16 11:22:26;;;;;;;0.37;0.37;;;26.20;79.60;;;;;;4263950;33;20179;-67
2022/06/16 11:24:58;;;;;;;0.30;0.30;;;26.30;78.80;;;;;;4266403;33;20088;-67
2022/06/16 11:27:23;;;;;;;0.20;0.20;;;26.30;78.90;;;;;;4274519;33;20196;-67
2022/06/16 11:29:49;;;;;;;0.40;0.40;;;26.70;78.50;;;;;;4269052;33;20595;-67
2022/06/16 11:32:19;;;;;;;2.33;0.68;;;27.10;77.80;;;;;;4260715;33;20202;-67
2022/06/16 11:34:46;;;;;;;0.10;0.10;;;27.50;76.60;;;;;;4259521;33;20306;-68
2022/06/16 11:37:40;;;;;;;0.20;0.20;;;27.90;76.00;;;;;;4266368;33;20065;-67
2022/06/16 11:40:30;;;;;;;0.43;0.20;;;27.80;75.00;;;;;;4277736;33;20521;-67
2022/06/16 11:43:23;;;;;;;0.22;0.22;;;28.20;75.50;;;;;;4267399;33;20123;-67
2022/06/16 11:46:14;;;;;;;1.00;0.52;;;28.70;73.90;;;;;;4260301;33;20116;-66
2022/06/16 11:48:51;;;;;;;1.10;0.50;;;28.80;72.20;;;;;;4252319;33;20294;-66
2022/06/16 11:51:43;;;;;;;4.30;1.20;;;28.80;73.10;;;;;;4255104;33;20629;-66
2022/06/16 11:54:42;;;;;;;0.10;0.10;;;28.80;71.50;;;;;;4269144;33;20095;-67
2022/06/16 11:57:36;;;;;;;0.00;0.00;;;28.90;71.40;;;;;;4271922;33;21157;-67
2022/06/16 12:00:16;;;;;;;0.10;0.10;;;29.30;70.80;;;;;;4269292;33;20100;-67
2022/06/16 12:03:20;;;;;;;1.55;0.62;;;29.10;69.30;;;;;;4260433;33;21574;-67
2022/06/16 12:06:23;;;;;;;0.10;0.10;;;29.30;69.50;;;;;;4266138;33;21188;-67
2022/06/16 12:08:59;;;;;;;0.32;0.32;;;29.20;68.60;;;;;;4261429;33;20209;-67
2022/06/16 12:11:41;;;;;;;0.37;0.30;;;29.30;68.50;;;;;;4276820;33;20529;-67
2022/06/16 12:14:31;;;;;;;0.10;0.10;;;29.30;68.30;;;;;;4275803;33;20203;-68
2022/06/16 12:17:03;;;;;;;0.88;0.60;;;29.50;67.40;;;;;;4277283;33;21465;-68
2022/06/16 12:19:51;;;;;;;0.52;0.35;;;29.80;68.00;;;;;;4270429;33;20068;-67
2022/06/16 12:22:27;;;;;;;0.70;0.62;;;29.90;67.10;;;;;;4263669;33;20685;-67
2022/06/16 12:25:04;;;;;;;1.77;0.47;;;30.00;66.30;;;;;;4278843;33;20280;-67
2022/06/16 12:27:42;;;;;;;0.00;0.00;;;30.20;66.00;;;;;;4282226;33;20093;-67
2022/06/16 12:30:24;;;;;;;1.25;0.40;;;30.50;64.50;;;;;;4269946;33;20084;-67
2022/06/16 12:33:03;;;;;;;0.10;0.10;;;30.40;64.60;;;;;;4267294;33;20079;-67
2022/06/16 12:35:48;;;;;;;0.22;0.22;;;30.60;64.90;;;;;;4273500;33;20328;-67
2022/06/16 12:38:22;;;;;;;0.45;0.30;;;30.90;61.60;;;;;;4272162;33;20248;-68
2022/06/16 12:40:51;;;;;;;3.33;0.25;;;30.60;63.80;;;;;;4282721;33;20104;-68
2022/06/16 12:43:26;;;;;;;0.40;0.40;;;30.20;64.00;;;;;;4276595;33;20149;-68
2022/06/16 12:46:01;;;;;;;3.62;0.98;;;30.70;63.50;;;;;;4278101;33;20051;-68
2022/06/16 12:48:36;;;;;;;0.13;0.13;;;30.70;62.70;;;;;;4272362;33;20635;-68
2022/06/16 12:51:06;;;;;;;0.10;0.10;;;30.20;63.40;;;;;;4274135;33;20080;-68
2022/06/16 12:53:55;;;;;;;2.45;0.60;;;30.00;64.00;;;;;;4280314;33;20576;-67
2022/06/16 12:56:29;;;;;;;0.20;0.20;;;29.90;64.00;;;;;;4279595;33;20075;-68
2022/06/16 12:59:01;;;;;;;0.20;0.20;;;30.00;65.20;;;;;;4281541;33;20468;-67
2022/06/16 13:01:27;;;;;;;0.47;0.45;;;30.60;63.80;;;;;;4284202;33;20080;-68
2022/06/16 13:04:04;;;;;;;0.73;0.32;;;31.10;61.80;;;;;;4274926;33;20450;-68
2022/06/16 13:06:31;;;;;;;0.15;0.15;;;30.80;62.30;;;;;;4281726;33;20608;-68
2022/06/16 13:09:00;;;;;;;0.17;0.17;;;31.80;60.90;;;;;;4279884;33;20116;-68
2022/06/16 13:11:30;;;;;;;0.13;0.13;;;32.40;58.90;;;;;;4276062;33;20100;-68
2022/06/16 13:14:02;;;;;;;0.73;0.40;;;31.50;60.70;;;;;;4275126;33;20124;-68
2022/06/16 13:16:32;;;;;;;0.17;0.17;;;31.10;61.40;;;;;;4264751;33;20530;-68
2022/06/16 13:19:06;;;;;;;1.98;0.10;;;30.50;61.60;;;;;;4267332;33;20104;-68
2022/06/16 13:21:36;;;;;;;0.00;0.00;;;30.50;60.90;;;;;;4273017;33;20170;-68